sensor_id;sensor_type;location;lat;lon;timestamp;pressure;altitude;pressure_sealevel;temperature;humidity
29045;BME280;16133;49.486;12.176;2023-04-04T00:00:50;98325.69;;;-1.64;76.46
29045;BME280;16133;49.486;12.176;2023-04-04T00:03:15;98323.41;;;-1.70;77.08
29045;BME280;16133;49.486;12.176;2023-04-04T00:05:41;98319.47;;;-1.77;77.75
29045;BME280;16133;49.486;12.176;2023-04-04T00:08:07;98318.09;;;-1.84;78.56
29045;BME280;16133;49.486;12.176;2023-04-04T00:10:32;98321.78;;;-1.88;78.54
29045;BME280;16133;49.486;12.176;2023-04-04T00:12:57;98315.22;;;-1.95;79.21
29045;BME280;16133;49.486;12.176;2023-04-04T00:15:23;98310.28;;;-2.00;80.73
29045;BME280;16133;49.486;12.176;2023-04-04T00:17:48;98313.19;;;-2.06;81.12
29045;BME280;16133;49.486;12.176;2023-04-04T00:20:14;98314.75;;;-2.03;81.96
29045;BME280;16133;49.486;12.176;2023-04-04T00:22:40;98293.84;;;-2.17;82.11
29045;BME280;16133;49.486;12.176;2023-04-04T00:25:05;98312.50;;;-2.09;82.64
29045;BME280;16133;49.486;12.176;2023-04-04T00:27:31;98305.78;;;-2.13;83.51
29045;BME280;16133;49.486;12.176;2023-04-04T00:29:56;98302.34;;;-2.14;84.68
29045;BME280;16133;49.486;12.176;2023-04-04T00:32:21;98310.28;;;-2.17;85.85
29045;BME280;16133;49.486;12.176;2023-04-04T00:34:53;98304.25;;;-2.17;86.83
29045;BME280;16133;49.486;12.176;2023-04-04T00:37:19;98293.84;;;-2.17;87.27
29045;BME280;16133;49.486;12.176;2023-04-04T00:39:44;98294.19;;;-2.23;87.32
29045;BME280;16133;49.486;12.176;2023-04-04T00:42:10;98296.34;;;-2.31;88.43
29045;BME280;16133;49.486;12.176;2023-04-04T00:44:35;98294.75;;;-2.34;89.08
29045;BME280;16133;49.486;12.176;2023-04-04T00:47:01;98287.34;;;-2.42;89.82
29045;BME280;16133;49.486;12.176;2023-04-04T00:49:28;98273.97;;;-2.51;90.19
29045;BME280;16133;49.486;12.176;2023-04-04T00:51:53;98285.94;;;-2.49;90.71
29045;BME280;16133;49.486;12.176;2023-04-04T00:54:19;98289.78;;;-2.56;90.74
29045;BME280;16133;49.486;12.176;2023-04-04T00:56:45;98277.41;;;-2.68;91.71
29045;BME280;16133;49.486;12.176;2023-04-04T00:59:12;98279.69;;;-2.79;92.59
29045;BME280;16133;49.486;12.176;2023-04-04T01:01:38;98281.13;;;-2.91;93.51
29045;BME280;16133;49.486;12.176;2023-04-04T01:04:03;98271.97;;;-2.98;93.88
29045;BME280;16133;49.486;12.176;2023-04-04T01:06:29;98269.84;;;-3.07;95.39
29045;BME280;16133;49.486;12.176;2023-04-04T01:08:56;98272.28;;;-3.04;95.13
29045;BME280;16133;49.486;12.176;2023-04-04T01:11:23;98270.91;;;-3.11;95.35
29045;BME280;16133;49.486;12.176;2023-04-04T01:13:49;98272.72;;;-3.13;96.08
29045;BME280;16133;49.486;12.176;2023-04-04T01:16:16;98267.75;;;-3.17;96.59
29045;BME280;16133;49.486;12.176;2023-04-04T01:18:42;98277.28;;;-3.18;97.10
29045;BME280;16133;49.486;12.176;2023-04-04T01:21:13;98268.38;;;-3.12;97.15
29045;BME280;16133;49.486;12.176;2023-04-04T01:26:16;98267.69;;;-2.99;95.42
29045;BME280;16133;49.486;12.176;2023-04-04T01:28:41;98267.19;;;-2.88;94.01
29045;BME280;16133;49.486;12.176;2023-04-04T01:31:09;98260.66;;;-2.79;93.37
29045;BME280;16133;49.486;12.176;2023-04-04T01:33:39;98262.06;;;-2.72;93.26
29045;BME280;16133;49.486;12.176;2023-04-04T01:36:40;98260.00;;;-2.66;93.57
29045;BME280;16133;49.486;12.176;2023-04-04T01:41:55;98258.00;;;-2.78;94.52
29045;BME280;16133;49.486;12.176;2023-04-04T01:44:23;98252.19;;;-2.83;95.40
29045;BME280;16133;49.486;12.176;2023-04-04T01:46:55;98249.97;;;-2.91;95.78
29045;BME280;16133;49.486;12.176;2023-04-04T01:49:21;98244.94;;;-2.94;95.31
29045;BME280;16133;49.486;12.176;2023-04-04T01:51:47;98247.59;;;-2.95;95.85
29045;BME280;16133;49.486;12.176;2023-04-04T01:54:14;98247.09;;;-3.02;95.86
29045;BME280;16133;49.486;12.176;2023-04-04T01:56:39;98245.94;;;-2.96;96.27
29045;BME280;16133;49.486;12.176;2023-04-04T01:59:04;98238.31;;;-2.99;96.08
29045;BME280;16133;49.486;12.176;2023-04-04T02:01:30;98246.84;;;-2.97;96.31
29045;BME280;16133;49.486;12.176;2023-04-04T02:03:57;98253.66;;;-2.95;97.11
29045;BME280;16133;49.486;12.176;2023-04-04T02:06:22;98246.69;;;-2.94;97.16
29045;BME280;16133;49.486;12.176;2023-04-04T02:08:48;98244.50;;;-2.84;96.84
29045;BME280;16133;49.486;12.176;2023-04-04T02:11:13;98241.53;;;-2.77;95.52
29045;BME280;16133;49.486;12.176;2023-04-04T02:13:39;98235.53;;;-2.79;95.00
29045;BME280;16133;49.486;12.176;2023-04-04T02:16:08;98243.34;;;-2.79;94.68
29045;BME280;16133;49.486;12.176;2023-04-04T02:18:34;98242.13;;;-2.89;94.36
29045;BME280;16133;49.486;12.176;2023-04-04T02:21:00;98237.09;;;-2.92;94.40
29045;BME280;16133;49.486;12.176;2023-04-04T02:23:26;98239.38;;;-3.03;94.62
29045;BME280;16133;49.486;12.176;2023-04-04T02:25:51;98237.28;;;-3.14;94.61
29045;BME280;16133;49.486;12.176;2023-04-04T02:28:17;98244.69;;;-3.23;94.61
29045;BME280;16133;49.486;12.176;2023-04-04T02:30:42;98238.13;;;-3.30;95.29
29045;BME280;16133;49.486;12.176;2023-04-04T02:33:08;98235.44;;;-3.29;95.65
29045;BME280;16133;49.486;12.176;2023-04-04T02:35:33;98239.72;;;-3.28;95.36
29045;BME280;16133;49.486;12.176;2023-04-04T02:37:58;98239.66;;;-3.26;96.64
29045;BME280;16133;49.486;12.176;2023-04-04T02:40:24;98234.16;;;-3.20;96.86
29045;BME280;16133;49.486;12.176;2023-04-04T02:42:49;98236.47;;;-3.14;97.43
29045;BME280;16133;49.486;12.176;2023-04-04T02:45:15;98237.00;;;-3.08;96.74
29045;BME280;16133;49.486;12.176;2023-04-04T02:47:41;98231.13;;;-3.11;97.70
29045;BME280;16133;49.486;12.176;2023-04-04T02:50:08;98232.94;;;-3.13;96.96
29045;BME280;16133;49.486;12.176;2023-04-04T02:52:34;98224.47;;;-3.17;99.22
29045;BME280;16133;49.486;12.176;2023-04-04T02:55:00;98231.97;;;-3.11;99.81
29045;BME280;16133;49.486;12.176;2023-04-04T02:57:26;98233.03;;;-3.15;100.00
29045;BME280;16133;49.486;12.176;2023-04-04T02:59:52;98233.25;;;-3.19;100.00
29045;BME280;16133;49.486;12.176;2023-04-04T03:02:17;98231.19;;;-3.30;100.00
29045;BME280;16133;49.486;12.176;2023-04-04T03:04:43;98231.41;;;-3.34;100.00
29045;BME280;16133;49.486;12.176;2023-04-04T03:07:08;98238.63;;;-3.41;100.00
29045;BME280;16133;49.486;12.176;2023-04-04T03:09:33;98239.09;;;-3.50;100.00
29045;BME280;16133;49.486;12.176;2023-04-04T03:11:59;98237.28;;;-3.67;100.00
29045;BME280;16133;49.486;12.176;2023-04-04T03:14:25;98237.78;;;-3.77;100.00
29045;BME280;16133;49.486;12.176;2023-04-04T03:16:51;98235.53;;;-3.85;100.00
29045;BME280;16133;49.486;12.176;2023-04-04T03:19:17;98230.78;;;-3.94;100.00
29045;BME280;16133;49.486;12.176;2023-04-04T03:21:43;98234.75;;;-4.06;100.00
29045;BME280;16133;49.486;12.176;2023-04-04T03:24:08;98226.16;;;-4.06;100.00
29045;BME280;16133;49.486;12.176;2023-04-04T03:26:34;98229.19;;;-4.15;100.00
29045;BME280;16133;49.486;12.176;2023-04-04T03:28:59;98237.09;;;-4.18;100.00
29045;BME280;16133;49.486;12.176;2023-04-04T03:31:25;98238.28;;;-4.25;100.00
29045;BME280;16133;49.486;12.176;2023-04-04T03:33:50;98223.50;;;-4.23;100.00
29045;BME280;16133;49.486;12.176;2023-04-04T03:36:15;98234.91;;;-4.27;100.00
29045;BME280;16133;49.486;12.176;2023-04-04T03:38:41;98223.13;;;-4.35;100.00
29045;BME280;16133;49.486;12.176;2023-04-04T03:41:07;98231.94;;;-4.39;100.00
29045;BME280;16133;49.486;12.176;2023-04-04T03:43:32;98230.13;;;-4.37;100.00
29045;BME280;16133;49.486;12.176;2023-04-04T03:46:02;98228.56;;;-4.41;100.00
29045;BME280;16133;49.486;12.176;2023-04-04T03:48:28;98222.91;;;-4.49;100.00
29045;BME280;16133;49.486;12.176;2023-04-04T03:50:57;98228.16;;;-4.50;100.00
29045;BME280;16133;49.486;12.176;2023-04-04T03:53:24;98217.78;;;-4.50;100.00
29045;BME280;16133;49.486;12.176;2023-04-04T03:55:50;98230.69;;;-4.49;100.00
29045;BME280;16133;49.486;12.176;2023-04-04T03:58:15;98227.09;;;-4.46;100.00
29045;BME280;16133;49.486;12.176;2023-04-04T04:00:41;98228.56;;;-4.41;100.00
29045;BME280;16133;49.486;12.176;2023-04-04T04:03:06;98218.59;;;-4.29;100.00
29045;BME280;16133;49.486;12.176;2023-04-04T04:05:31;98226.03;;;-4.22;100.00
29045;BME280;16133;49.486;12.176;2023-04-04T04:07:57;98228.19;;;-4.13;100.00
29045;BME280;16133;49.486;12.176;2023-04-04T04:10:22;98226.59;;;-4.15;100.00
29045;BME280;16133;49.486;12.176;2023-04-04T04:12:48;98220.63;;;-4.17;100.00
29045;BME280;16133;49.486;12.176;2023-04-04T04:15:13;98230.03;;;-4.15;100.00
29045;BME280;16133;49.486;12.176;2023-04-04T04:17:39;98227.50;;;-4.16;100.00
29045;BME280;16133;49.486;12.176;2023-04-04T04:20:06;98227.00;;;-4.24;100.00
29045;BME280;16133;49.486;12.176;2023-04-04T04:22:32;98225.63;;;-4.33;100.00
29045;BME280;16133;49.486;12.176;2023-04-04T04:24:58;98230.19;;;-4.38;100.00
29045;BME280;16133;49.486;12.176;2023-04-04T04:27:23;98227.09;;;-4.46;100.00
29045;BME280;16133;49.486;12.176;2023-04-04T04:29:48;98235.22;;;-4.54;100.00
29045;BME280;16133;49.486;12.176;2023-04-04T04:32:16;98230.03;;;-4.54;100.00
29045;BME280;16133;49.486;12.176;2023-04-04T04:34:41;98234.69;;;-4.62;100.00
29045;BME280;16133;49.486;12.176;2023-04-04T04:37:07;98228.03;;;-4.67;100.00
29045;BME280;16133;49.486;12.176;2023-04-04T04:39:32;98228.94;;;-4.68;100.00
29045;BME280;16133;49.486;12.176;2023-04-04T04:41:58;98226.41;;;-4.70;100.00
29045;BME280;16133;49.486;12.176;2023-04-04T04:44:23;98224.09;;;-4.76;100.00
29045;BME280;16133;49.486;12.176;2023-04-04T04:46:49;98225.19;;;-4.82;100.00
29045;BME280;16133;49.486;12.176;2023-04-04T04:49:14;98223.44;;;-4.81;100.00
29045;BME280;16133;49.486;12.176;2023-04-04T04:51:40;98220.88;;;-4.81;100.00
29045;BME280;16133;49.486;12.176;2023-04-04T04:54:07;98219.03;;;-4.79;100.00
29045;BME280;16133;49.486;12.176;2023-04-04T04:56:32;98220.88;;;-4.81;100.00
29045;BME280;16133;49.486;12.176;2023-04-04T04:58:57;98225.00;;;-4.77;100.00
29045;BME280;16133;49.486;12.176;2023-04-04T05:01:23;98204.50;;;-4.82;100.00
29045;BME280;16133;49.486;12.176;2023-04-04T05:03:48;98227.25;;;-4.69;100.00
29045;BME280;16133;49.486;12.176;2023-04-04T05:06:14;98218.59;;;-4.68;100.00
29045;BME280;16133;49.486;12.176;2023-04-04T05:08:39;98225.25;;;-4.63;100.00
29045;BME280;16133;49.486;12.176;2023-04-04T05:11:04;98221.38;;;-4.53;100.00
29045;BME280;16133;49.486;12.176;2023-04-04T05:13:30;98222.78;;;-4.46;100.00
29045;BME280;16133;49.486;12.176;2023-04-04T05:15:55;98225.41;;;-4.47;100.00
29045;BME280;16133;49.486;12.176;2023-04-04T05:18:20;98221.09;;;-4.47;100.00
29045;BME280;16133;49.486;12.176;2023-04-04T05:20:53;98227.06;;;-4.45;100.00
29045;BME280;16133;49.486;12.176;2023-04-04T05:23:18;98227.53;;;-4.37;100.00
29045;BME280;16133;49.486;12.176;2023-04-04T05:25:44;98225.44;;;-4.28;100.00
29045;BME280;16133;49.486;12.176;2023-04-04T05:28:09;98225.69;;;-4.14;100.00
29045;BME280;16133;49.486;12.176;2023-04-04T05:30:34;98226.25;;;-4.08;100.00
29045;BME280;16133;49.486;12.176;2023-04-04T05:33:00;98226.59;;;-3.97;100.00
29045;BME280;16133;49.486;12.176;2023-04-04T05:35:25;98230.16;;;-3.80;100.00
29045;BME280;16133;49.486;12.176;2023-04-04T05:37:50;98227.69;;;-3.65;100.00
29045;BME280;16133;49.486;12.176;2023-04-04T05:40:16;98231.16;;;-3.47;100.00
29045;BME280;16133;49.486;12.176;2023-04-04T05:42:41;98229.19;;;-3.25;100.00
29045;BME280;16133;49.486;12.176;2023-04-04T05:45:08;98234.25;;;-3.05;100.00
29045;BME280;16133;49.486;12.176;2023-04-04T05:47:34;98230.28;;;-2.77;100.00
29045;BME280;16133;49.486;12.176;2023-04-04T05:49:59;98243.19;;;-2.59;100.00
29045;BME280;16133;49.486;12.176;2023-04-04T05:52:25;98245.53;;;-2.54;100.00
29045;BME280;16133;49.486;12.176;2023-04-04T05:54:51;98240.81;;;-2.46;100.00
29045;BME280;16133;49.486;12.176;2023-04-04T05:57:16;98244.81;;;-2.41;100.00
29045;BME280;16133;49.486;12.176;2023-04-04T05:59:41;98247.69;;;-2.29;100.00
29045;BME280;16133;49.486;12.176;2023-04-04T06:02:07;98253.50;;;-2.24;100.00
29045;BME280;16133;49.486;12.176;2023-04-04T06:04:32;98245.72;;;-2.24;100.00
29045;BME280;16133;49.486;12.176;2023-04-04T06:06:58;98246.31;;;-2.19;100.00
29045;BME280;16133;49.486;12.176;2023-04-04T06:09:25;98250.44;;;-2.15;100.00
29045;BME280;16133;49.486;12.176;2023-04-04T06:11:50;98242.91;;;-2.04;100.00
29045;BME280;16133;49.486;12.176;2023-04-04T06:14:15;98249.97;;;-1.90;99.48
29045;BME280;16133;49.486;12.176;2023-04-04T06:16:41;98246.28;;;-1.71;97.21
29045;BME280;16133;49.486;12.176;2023-04-04T06:19:06;98238.22;;;-1.51;95.43
29045;BME280;16133;49.486;12.176;2023-04-04T06:21:31;98233.03;;;-1.35;94.80
29045;BME280;16133;49.486;12.176;2023-04-04T06:23:57;98245.06;;;-1.18;92.39
29045;BME280;16133;49.486;12.176;2023-04-04T06:26:22;98242.16;;;-0.98;91.08
29045;BME280;16133;49.486;12.176;2023-04-04T06:28:51;98244.47;;;-0.78;89.22
29045;BME280;16133;49.486;12.176;2023-04-04T06:31:17;98240.78;;;-0.60;86.75
29045;BME280;16133;49.486;12.176;2023-04-04T06:33:42;98240.91;;;-0.33;86.26
29045;BME280;16133;49.486;12.176;2023-04-04T06:36:08;98244.19;;;-0.01;85.37
29045;BME280;16133;49.486;12.176;2023-04-04T06:38:33;98246.03;;;0.25;84.20
29045;BME280;16133;49.486;12.176;2023-04-04T06:40:59;98242.63;;;0.52;82.26
29045;BME280;16133;49.486;12.176;2023-04-04T06:43:24;98242.19;;;0.72;80.78
29045;BME280;16133;49.486;12.176;2023-04-04T06:45:50;98245.63;;;0.99;80.13
29045;BME280;16133;49.486;12.176;2023-04-04T06:48:15;98239.00;;;1.20;79.32
29045;BME280;16133;49.486;12.176;2023-04-04T06:50:41;98243.63;;;1.42;78.08
29045;BME280;16133;49.486;12.176;2023-04-04T06:53:07;98237.34;;;1.57;77.28
29045;BME280;16133;49.486;12.176;2023-04-04T06:55:33;98240.41;;;1.64;76.52
29045;BME280;16133;49.486;12.176;2023-04-04T06:57:58;98243.53;;;1.69;76.48
29045;BME280;16133;49.486;12.176;2023-04-04T07:00:24;98243.13;;;1.75;74.39
29045;BME280;16133;49.486;12.176;2023-04-04T07:02:56;98244.72;;;1.90;75.26
29045;BME280;16133;49.486;12.176;2023-04-04T07:05:21;98244.28;;;2.09;74.68
29045;BME280;16133;49.486;12.176;2023-04-04T07:07:50;98245.91;;;2.22;74.11
29045;BME280;16133;49.486;12.176;2023-04-04T07:10:18;98253.88;;;2.33;73.00
29045;BME280;16133;49.486;12.176;2023-04-04T07:12:43;98240.00;;;2.57;72.12
29045;BME280;16133;49.486;12.176;2023-04-04T07:15:09;98245.97;;;2.82;72.03
29045;BME280;16133;49.486;12.176;2023-04-04T07:17:38;98248.94;;;3.02;71.44
29045;BME280;16133;49.486;12.176;2023-04-04T07:20:06;98240.31;;;3.23;66.34
29045;BME280;16133;49.486;12.176;2023-04-04T07:22:32;98240.44;;;3.22;65.85
29045;BME280;16133;49.486;12.176;2023-04-04T07:24:57;98247.16;;;3.37;61.97
29045;BME280;16133;49.486;12.176;2023-04-04T07:27:23;98247.47;;;3.21;61.38
29045;BME280;16133;49.486;12.176;2023-04-04T07:29:48;98246.69;;;3.08;60.70
29045;BME280;16133;49.486;12.176;2023-04-04T07:32:13;98239.69;;;3.20;61.11
29045;BME280;16133;49.486;12.176;2023-04-04T07:34:39;98247.59;;;3.31;61.11
29045;BME280;16133;49.486;12.176;2023-04-04T07:37:04;98249.09;;;3.57;60.34
29045;BME280;16133;49.486;12.176;2023-04-04T07:39:29;98251.88;;;3.67;57.82
29045;BME280;16133;49.486;12.176;2023-04-04T07:41:56;98255.56;;;3.64;59.17
29045;BME280;16133;49.486;12.176;2023-04-04T07:44:21;98250.22;;;3.66;57.97
29045;BME280;16133;49.486;12.176;2023-04-04T07:46:46;98252.84;;;3.66;57.99
29045;BME280;16133;49.486;12.176;2023-04-04T07:49:12;98256.13;;;3.57;55.86
29045;BME280;16133;49.486;12.176;2023-04-04T07:51:38;98249.94;;;3.58;57.87
29045;BME280;16133;49.486;12.176;2023-04-04T07:54:04;98252.72;;;3.67;54.71
29045;BME280;16133;49.486;12.176;2023-04-04T07:56:29;98244.34;;;3.51;54.91
29045;BME280;16133;49.486;12.176;2023-04-04T07:58:55;98242.97;;;3.34;54.88
29045;BME280;16133;49.486;12.176;2023-04-04T08:01:20;98243.69;;;3.36;54.74
29045;BME280;16133;49.486;12.176;2023-04-04T08:03:46;98246.78;;;3.42;55.53
29045;BME280;16133;49.486;12.176;2023-04-04T08:06:12;98244.66;;;3.35;55.27
29045;BME280;16133;49.486;12.176;2023-04-04T08:08:37;98255.28;;;3.10;55.71
29045;BME280;16133;49.486;12.176;2023-04-04T08:11:02;98248.22;;;3.11;55.49
29045;BME280;16133;49.486;12.176;2023-04-04T08:13:28;98249.00;;;3.24;57.42
29045;BME280;16133;49.486;12.176;2023-04-04T08:15:53;98242.66;;;3.50;55.80
29045;BME280;16133;49.486;12.176;2023-04-04T08:18:18;98253.78;;;3.65;56.73
29045;BME280;16133;49.486;12.176;2023-04-04T08:20:44;98253.22;;;3.83;55.17
29045;BME280;16133;49.486;12.176;2023-04-04T08:23:10;98248.69;;;3.85;54.41
29045;BME280;16133;49.486;12.176;2023-04-04T08:25:37;98237.00;;;3.90;53.61
29045;BME280;16133;49.486;12.176;2023-04-04T08:28:03;98240.00;;;3.96;53.14
29045;BME280;16133;49.486;12.176;2023-04-04T08:30:29;98244.28;;;3.86;52.68
29045;BME280;16133;49.486;12.176;2023-04-04T08:32:56;98251.94;;;4.00;53.72
29045;BME280;16133;49.486;12.176;2023-04-04T08:35:21;98245.50;;;4.15;53.71
29045;BME280;16133;49.486;12.176;2023-04-04T08:37:47;98241.44;;;4.22;51.53
29045;BME280;16133;49.486;12.176;2023-04-04T08:40:12;98246.47;;;4.37;49.54
29045;BME280;16133;49.486;12.176;2023-04-04T08:42:39;98232.56;;;4.46;49.89
29045;BME280;16133;49.486;12.176;2023-04-04T08:45:06;98242.41;;;4.32;49.79
29045;BME280;16133;49.486;12.176;2023-04-04T08:47:33;98241.78;;;4.51;50.02
29045;BME280;16133;49.486;12.176;2023-04-04T08:50:03;98241.00;;;4.82;49.84
29045;BME280;16133;49.486;12.176;2023-04-04T08:52:30;98245.03;;;4.98;49.48
29045;BME280;16133;49.486;12.176;2023-04-04T08:54:57;98243.94;;;5.00;47.47
29045;BME280;16133;49.486;12.176;2023-04-04T08:57:23;98236.66;;;4.93;47.00
29045;BME280;16133;49.486;12.176;2023-04-04T08:59:48;98240.44;;;4.79;49.02
29045;BME280;16133;49.486;12.176;2023-04-04T09:02:18;98239.19;;;4.83;48.54
29045;BME280;16133;49.486;12.176;2023-04-04T09:04:47;98239.06;;;4.85;47.59
29045;BME280;16133;49.486;12.176;2023-04-04T09:07:14;98234.72;;;4.95;46.73
29045;BME280;16133;49.486;12.176;2023-04-04T09:09:45;98233.94;;;4.94;46.91
29045;BME280;16133;49.486;12.176;2023-04-04T09:12:12;98241.16;;;4.70;47.79
29045;BME280;16133;49.486;12.176;2023-04-04T09:14:39;98240.38;;;4.90;48.41
29045;BME280;16133;49.486;12.176;2023-04-04T09:17:05;98233.25;;;5.13;45.96
29045;BME280;16133;49.486;12.176;2023-04-04T09:19:32;98230.41;;;5.05;46.59
29045;BME280;16133;49.486;12.176;2023-04-04T09:21:58;98231.22;;;5.37;46.71
29045;BME280;16133;49.486;12.176;2023-04-04T09:24:23;98231.44;;;5.66;46.65
29045;BME280;16133;49.486;12.176;2023-04-04T09:26:51;98225.59;;;6.04;45.53
29045;BME280;16133;49.486;12.176;2023-04-04T09:29:20;98233.09;;;6.08;45.67
29045;BME280;16133;49.486;12.176;2023-04-04T09:31:46;98225.13;;;6.29;45.95
29045;BME280;16133;49.486;12.176;2023-04-04T09:34:14;98226.63;;;6.62;45.64
29045;BME280;16133;49.486;12.176;2023-04-04T09:36:40;98222.50;;;6.79;44.49
29045;BME280;16133;49.486;12.176;2023-04-04T09:39:07;98221.09;;;6.65;44.69
29045;BME280;16133;49.486;12.176;2023-04-04T09:41:32;98227.66;;;6.40;44.46
29045;BME280;16133;49.486;12.176;2023-04-04T09:43:59;98229.72;;;6.37;44.00
29045;BME280;16133;49.486;12.176;2023-04-04T09:46:24;98224.56;;;6.25;43.92
29045;BME280;16133;49.486;12.176;2023-04-04T09:48:52;98232.28;;;6.17;44.65
29045;BME280;16133;49.486;12.176;2023-04-04T09:51:19;98228.66;;;6.09;44.46
29045;BME280;16133;49.486;12.176;2023-04-04T09:53:47;98225.94;;;6.20;43.77
29045;BME280;16133;49.486;12.176;2023-04-04T09:56:13;98227.78;;;5.99;44.57
29045;BME280;16133;49.486;12.176;2023-04-04T09:58:40;98246.44;;;5.86;45.32
29045;BME280;16133;49.486;12.176;2023-04-04T10:01:08;98232.31;;;5.76;45.49
29045;BME280;16133;49.486;12.176;2023-04-04T10:03:36;98220.78;;;5.88;45.62
29045;BME280;16133;49.486;12.176;2023-04-04T10:06:05;98221.41;;;6.01;46.34
29045;BME280;16133;49.486;12.176;2023-04-04T10:08:32;98219.25;;;6.56;45.92
29045;BME280;16133;49.486;12.176;2023-04-04T10:10:58;98218.38;;;6.95;44.31
29045;BME280;16133;49.486;12.176;2023-04-04T10:13:28;98217.69;;;7.41;43.71
29045;BME280;16133;49.486;12.176;2023-04-04T10:15:55;98205.00;;;7.74;42.58
29045;BME280;16133;49.486;12.176;2023-04-04T10:18:23;98203.19;;;7.74;42.18
29045;BME280;16133;49.486;12.176;2023-04-04T10:20:50;98211.09;;;7.93;42.12
29045;BME280;16133;49.486;12.176;2023-04-04T10:23:15;98204.66;;;7.96;40.99
29045;BME280;16133;49.486;12.176;2023-04-04T10:25:41;98193.94;;;7.51;40.99
29045;BME280;16133;49.486;12.176;2023-04-04T10:28:07;98182.53;;;7.41;41.32
29045;BME280;16133;49.486;12.176;2023-04-04T10:30:38;98211.25;;;7.73;42.74
29045;BME280;16133;49.486;12.176;2023-04-04T10:33:06;98208.78;;;7.52;41.39
29045;BME280;16133;49.486;12.176;2023-04-04T10:35:37;98207.13;;;7.41;41.52
29045;BME280;16133;49.486;12.176;2023-04-04T10:38:05;98201.13;;;7.49;43.09
29045;BME280;16133;49.486;12.176;2023-04-04T10:40:34;98199.97;;;7.80;41.80
29045;BME280;16133;49.486;12.176;2023-04-04T10:43:03;98194.63;;;7.99;41.89
29045;BME280;16133;49.486;12.176;2023-04-04T10:45:30;98189.34;;;7.43;41.66
29045;BME280;16133;49.486;12.176;2023-04-04T10:47:58;98193.13;;;7.12;43.14
29045;BME280;16133;49.486;12.176;2023-04-04T10:50:24;98207.41;;;7.19;41.30
29045;BME280;16133;49.486;12.176;2023-04-04T10:52:50;98204.50;;;7.12;40.79
29045;BME280;16133;49.486;12.176;2023-04-04T10:55:17;98181.28;;;6.87;40.82
29045;BME280;16133;49.486;12.176;2023-04-04T10:57:45;98204.91;;;7.17;41.87
29045;BME280;16133;49.486;12.176;2023-04-04T11:00:14;98196.72;;;7.11;40.85
29045;BME280;16133;49.486;12.176;2023-04-04T11:02:46;98190.06;;;7.16;41.52
29045;BME280;16133;49.486;12.176;2023-04-04T11:05:17;98191.00;;;7.44;40.21
29045;BME280;16133;49.486;12.176;2023-04-04T11:07:44;98162.41;;;7.20;41.55
29045;BME280;16133;49.486;12.176;2023-04-04T11:10:15;98153.34;;;7.33;42.98
29045;BME280;16133;49.486;12.176;2023-04-04T11:12:45;98181.66;;;7.69;42.72
29045;BME280;16133;49.486;12.176;2023-04-04T11:15:11;98163.00;;;7.80;39.63
29045;BME280;16133;49.486;12.176;2023-04-04T11:20:18;98185.75;;;7.91;42.13
29045;BME280;16133;49.486;12.176;2023-04-04T11:22:44;98174.94;;;7.84;41.57
29045;BME280;16133;49.486;12.176;2023-04-04T11:25:30;98180.56;;;7.62;41.00
29045;BME280;16133;49.486;12.176;2023-04-04T11:27:56;98149.88;;;7.32;42.45
29045;BME280;16133;49.486;12.176;2023-04-04T11:30:25;98177.09;;;7.52;41.95
29045;BME280;16133;49.486;12.176;2023-04-04T11:32:56;98171.63;;;7.73;42.01
29045;BME280;16133;49.486;12.176;2023-04-04T11:35:21;98155.34;;;7.77;41.75
29045;BME280;16133;49.486;12.176;2023-04-04T11:40:15;98156.75;;;7.72;41.22
29045;BME280;16133;49.486;12.176;2023-04-04T11:42:40;98154.22;;;7.80;41.00
29045;BME280;16133;49.486;12.176;2023-04-04T11:45:06;98121.22;;;7.56;40.63
29045;BME280;16133;49.486;12.176;2023-04-04T11:47:34;98133.38;;;7.20;43.24
29045;BME280;16133;49.486;12.176;2023-04-04T11:50:00;98146.31;;;7.04;43.10
29045;BME280;16133;49.486;12.176;2023-04-04T11:52:32;98161.56;;;7.30;42.48
29045;BME280;16133;49.486;12.176;2023-04-04T11:54:59;98154.34;;;7.32;41.20
29045;BME280;16133;49.486;12.176;2023-04-04T11:57:24;98151.09;;;7.57;40.81
29045;BME280;16133;49.486;12.176;2023-04-04T11:59:50;98153.09;;;7.82;41.56
29045;BME280;16133;49.486;12.176;2023-04-04T12:02:24;98116.88;;;7.65;41.48
29045;BME280;16133;49.486;12.176;2023-04-04T12:04:56;98152.84;;;7.76;40.98
29045;BME280;16133;49.486;12.176;2023-04-04T12:07:22;98149.91;;;7.88;42.39
29045;BME280;16133;49.486;12.176;2023-04-04T12:09:48;98133.16;;;7.97;40.32
29045;BME280;16133;49.486;12.176;2023-04-04T12:12:15;98145.59;;;7.87;39.79
29045;BME280;16133;49.486;12.176;2023-04-04T12:14:40;98143.00;;;8.05;40.44
29045;BME280;16133;49.486;12.176;2023-04-04T12:17:06;98142.72;;;8.08;39.75
29045;BME280;16133;49.486;12.176;2023-04-04T12:19:35;98135.03;;;8.14;39.47
29045;BME280;16133;49.486;12.176;2023-04-04T12:22:02;98103.91;;;8.08;41.76
29045;BME280;16133;49.486;12.176;2023-04-04T12:24:27;98127.31;;;8.03;41.56
29045;BME280;16133;49.486;12.176;2023-04-04T12:26:53;98137.53;;;7.79;40.95
29045;BME280;16133;49.486;12.176;2023-04-04T12:29:20;98138.31;;;7.62;41.83
29045;BME280;16133;49.486;12.176;2023-04-04T12:31:46;98135.03;;;7.31;41.99
29045;BME280;16133;49.486;12.176;2023-04-04T12:34:23;98137.28;;;7.07;41.96
29045;BME280;16133;49.486;12.176;2023-04-04T12:36:52;98136.69;;;6.74;41.96
29045;BME280;16133;49.486;12.176;2023-04-04T12:39:20;98130.28;;;6.39;43.53
29045;BME280;16133;49.486;12.176;2023-04-04T12:42:06;98120.94;;;5.85;44.57
29045;BME280;16133;49.486;12.176;2023-04-04T12:44:35;98127.44;;;5.51;45.49
29045;BME280;16133;49.486;12.176;2023-04-04T12:47:06;98129.63;;;5.04;45.31
29045;BME280;16133;49.486;12.176;2023-04-04T12:49:33;98125.75;;;4.67;46.61
29045;BME280;16133;49.486;12.176;2023-04-04T12:51:59;98098.13;;;4.41;46.83
29045;BME280;16133;49.486;12.176;2023-04-04T12:54:31;98095.22;;;4.55;47.17
29045;BME280;16133;49.486;12.176;2023-04-04T12:56:57;98120.56;;;5.18;47.10
29045;BME280;16133;49.486;12.176;2023-04-04T12:59:27;98094.00;;;5.72;45.93